SPHI/CIX METAR and TAF weather

Enter ICAO airport designator
Station Type Date Time Source
SPHI METAR 2020/03/29 15:00 UTC NOAA

SPHI 291500Z 18010KT CAVOK 28/17 Q1012 RMK BIRD HAZARD RWY 19/01 PP000


Station Type Date Time Source
SPHI Decoded METAR 2020/03/29 15:00 UTC NOAA

Chiclayo, Peru (SPHI) 06-47S 079-50W 34M
Mar 29, 2020 - 11:00 AM EDT / 2020.03.29 1500 UTC
Wind: from the S (180 degrees) at 12 MPH (10 KT):0
Visibility: greater than 7 mile(s):0
Temperature: 82 F (28 C)
Dew Point: 62 F (17 C)
Relative Humidity: 51%
Pressure (altimeter): 29.88 in. Hg (1012 hPa)
ob: SPHI 291500Z 18010KT CAVOK 28/17 Q1012 RMK BIRD HAZARD RWY 19/01 PP000
cycle: 15

Station Type Date Time Source
SPHI TAF 2020/03/29 12:36 UTC NOAA

TAF TAF COR SPHI 291100Z 2912/3012 20007KT CAVOK TX31/2919Z TN22/3011Z
FM291800 22015KT CAVOK
BECMG 3002/3004 20008KT 9999 SCT040 BKN130

Example: see airport list